createdAt,value
2022-12-27T00:02:45.192Z,100859.47
2022-12-27T00:05:47.688Z,100859.38
2022-12-27T00:08:49.285Z,100871.69
2022-12-27T00:11:56.271Z,100871.16
2022-12-27T00:14:59.650Z,100875.22
2022-12-27T00:18:01.085Z,100885.41
2022-12-27T00:21:04.368Z,100878.59
2022-12-27T00:24:06.060Z,100884.34
2022-12-27T00:27:07.622Z,100891.94
2022-12-27T00:30:09.976Z,100885.81
2022-12-27T00:33:11.459Z,100875.38
2022-12-27T00:36:15.731Z,100872.50
2022-12-27T00:39:17.274Z,100884.78
2022-12-27T00:42:20.362Z,100879.50
2022-12-27T00:45:21.918Z,100888.91
2022-12-27T00:48:23.812Z,100891.91
2022-12-27T00:51:25.715Z,100893.00
2022-12-27T00:54:27.306Z,100892.50
2022-12-27T00:57:28.915Z,100895.63
2022-12-27T01:00:30.540Z,100894.00
2022-12-27T01:03:34.828Z,100899.94
2022-12-27T01:06:36.376Z,100896.25
2022-12-27T01:09:37.844Z,100898.50
2022-12-27T01:12:39.523Z,100908.75
2022-12-27T01:15:42.505Z,100905.22
2022-12-27T01:18:44.299Z,100908.16
2022-12-27T01:21:45.872Z,100920.91
2022-12-27T01:24:47.332Z,100909.22
2022-12-27T01:27:48.819Z,100919.72
2022-12-27T01:30:50.398Z,100927.03
2022-12-27T01:33:57.527Z,100918.78
2022-12-27T01:36:59.019Z,100922.50
2022-12-27T01:40:01.669Z,100924.34
2022-12-27T01:43:03.870Z,100929.06
2022-12-27T01:46:05.385Z,100929.56
2022-12-27T01:49:10.323Z,100937.06
2022-12-27T01:52:13.138Z,100943.56
2022-12-27T01:55:23.415Z,100946.66
2022-12-27T01:58:30.855Z,100947.06
2022-12-27T02:01:42.322Z,100944.25
2022-12-27T02:04:45.179Z,100940.38
2022-12-27T02:08:14.024Z,100948.84
2022-12-27T02:11:17.969Z,100950.13
2022-12-27T02:14:28.619Z,100954.44
2022-12-27T02:17:32.368Z,100951.06
2022-12-27T02:20:55.598Z,100958.06
2022-12-27T02:24:03.047Z,100959.44
2022-12-27T02:27:17.089Z,100959.06
2022-12-27T02:30:18.677Z,100961.50
2022-12-27T02:33:26.942Z,100951.56
2022-12-27T02:36:33.660Z,100955.06
2022-12-27T02:39:39.904Z,100953.22
2022-12-27T02:42:59.992Z,100956.78
2022-12-27T02:46:35.552Z,100951.84
2022-12-27T02:49:59.219Z,100964.16
2022-12-27T02:53:16.190Z,100969.91
2022-12-27T02:56:55.561Z,100991.31
2022-12-27T03:00:33.075Z,100993.22
2022-12-27T03:03:51.055Z,100989.00
2022-12-27T03:07:12.780Z,100989.16
2022-12-27T03:10:55.875Z,100990.66
2022-12-27T03:14:23.291Z,100991.97
2022-12-27T03:17:36.018Z,100986.28
2022-12-27T03:21:00.693Z,100996.50
2022-12-27T03:24:23.620Z,100982.03
2022-12-27T03:27:32.850Z,100990.25
2022-12-27T03:30:56.200Z,100987.66
2022-12-27T03:34:22.967Z,100986.44
2022-12-27T03:37:48.722Z,100988.53
2022-12-27T03:41:16.211Z,100991.38
2022-12-27T03:44:26.873Z,100992.25
2022-12-27T03:47:38.915Z,101003.97
2022-12-27T03:51:04.842Z,101002.59
2022-12-27T03:54:17.566Z,101002.97
2022-12-27T03:57:21.283Z,101000.50
2022-12-27T04:00:22.755Z,100999.38
2022-12-27T04:03:24.416Z,100996.06
2022-12-27T04:06:25.993Z,100996.19
2022-12-27T04:09:46.119Z,101006.09
2022-12-27T04:13:05.911Z,101002.97
2022-12-27T04:16:25.958Z,100996.38
2022-12-27T04:19:46.182Z,100993.09
2022-12-27T04:23:06.361Z,100986.44
2022-12-27T04:26:26.831Z,100992.53
2022-12-27T04:29:46.679Z,100996.94
2022-12-27T04:33:06.973Z,101003.22
2022-12-27T04:36:08.960Z,100999.47
2022-12-27T04:39:10.615Z,101002.22
2022-12-27T04:42:30.789Z,100992.56
2022-12-27T04:45:50.828Z,100998.03
2022-12-27T04:49:11.024Z,100983.63
2022-12-27T04:52:34.036Z,100989.19
2022-12-27T04:55:35.623Z,100988.72
2022-12-27T04:58:57.277Z,100986.91
2022-12-27T05:02:04.775Z,100986.22
2022-12-27T05:05:07.631Z,100991.56
2022-12-27T05:08:28.475Z,100994.75
2022-12-27T05:11:48.584Z,101006.25
2022-12-27T05:14:50.243Z,101002.13
2022-12-27T05:17:51.714Z,101003.06
2022-12-27T05:20:53.310Z,101002.97
2022-12-27T05:24:13.428Z,101000.94
2022-12-27T05:27:15.841Z,101000.94
2022-12-27T05:30:17.395Z,101008.84
2022-12-27T05:33:18.928Z,101014.66
2022-12-27T05:36:20.790Z,101019.53
2022-12-27T05:39:22.285Z,101020.59
2022-12-27T05:42:23.706Z,101022.66
2022-12-27T05:45:25.209Z,101024.19
2022-12-27T05:48:26.695Z,101026.84
2022-12-27T05:51:28.167Z,101027.38
2022-12-27T05:54:29.660Z,101037.66
2022-12-27T05:57:31.255Z,101033.94
2022-12-27T06:00:32.799Z,101042.19
2022-12-27T06:03:34.347Z,101043.06
2022-12-27T06:06:35.863Z,101041.25
2022-12-27T06:09:37.624Z,101036.44
2022-12-27T06:12:39.243Z,101042.31
2022-12-27T06:15:40.711Z,101043.59
2022-12-27T06:18:42.822Z,101037.19
2022-12-27T06:21:44.459Z,101028.53
2022-12-27T06:24:46.103Z,101036.13
2022-12-27T06:27:47.509Z,101022.25
2022-12-27T06:30:49.365Z,101029.75
2022-12-27T06:33:52.228Z,101033.56
2022-12-27T06:36:53.719Z,101035.38
2022-12-27T06:39:55.161Z,101035.59
2022-12-27T06:42:56.690Z,101038.59
2022-12-27T06:45:59.810Z,101046.19
2022-12-27T06:49:01.406Z,101052.38
2022-12-27T06:52:04.398Z,101052.91
2022-12-27T06:55:06.125Z,101059.00
2022-12-27T06:58:07.843Z,101052.84
2022-12-27T07:01:10.697Z,101059.84
2022-12-27T07:04:12.271Z,101064.03
2022-12-27T07:07:15.965Z,101064.22
2022-12-27T07:10:18.394Z,101063.75
2022-12-27T07:13:19.874Z,101061.75
2022-12-27T07:16:27.305Z,101059.25
2022-12-27T07:19:28.831Z,101058.88
2022-12-27T07:22:30.402Z,101066.47
2022-12-27T07:25:32.294Z,101074.28
2022-12-27T07:28:34.572Z,101072.81
2022-12-27T07:31:36.157Z,101075.94
2022-12-27T07:34:37.638Z,101076.88
2022-12-27T07:37:39.240Z,101077.00
2022-12-27T07:40:40.660Z,101078.47
2022-12-27T07:43:43.903Z,101085.25
2022-12-27T07:46:45.913Z,101083.84
2022-12-27T07:49:47.469Z,101088.91
2022-12-27T07:52:48.905Z,101082.03
2022-12-27T07:55:51.102Z,101091.97
2022-12-27T07:58:54.277Z,101089.97
2022-12-27T08:02:05.025Z,101093.78
2022-12-27T08:05:06.767Z,101094.84
2022-12-27T08:08:09.222Z,101091.84
2022-12-27T08:11:11.052Z,101095.69
2022-12-27T08:14:12.585Z,101090.81
2022-12-27T08:17:22.392Z,101087.06
2022-12-27T08:20:23.901Z,101080.81
2022-12-27T08:23:25.510Z,101084.00
2022-12-27T08:26:27.009Z,101071.28
2022-12-27T08:29:28.568Z,101073.72
2022-12-27T08:32:30.055Z,101073.66
2022-12-27T08:38:54.797Z,101084.94
2022-12-27T08:41:56.342Z,101086.16
2022-12-27T08:44:58.399Z,101076.50
2022-12-27T08:48:00.958Z,101084.19
2022-12-27T08:51:12.349Z,101084.16
2022-12-27T08:54:14.630Z,101081.41
2022-12-27T08:57:16.165Z,101083.56
2022-12-27T09:00:18.477Z,101085.59
2022-12-27T09:03:21.420Z,101081.66
2022-12-27T09:06:25.566Z,101088.25
2022-12-27T09:09:28.055Z,101089.72
2022-12-27T09:12:31.435Z,101092.72
2022-12-27T09:15:32.994Z,101092.91
2022-12-27T09:18:34.838Z,101101.00
2022-12-27T09:21:40.987Z,101100.19
2022-12-27T09:24:42.469Z,101102.50
2022-12-27T09:27:43.925Z,101097.97
2022-12-27T09:30:45.583Z,101106.41
2022-12-27T09:33:47.510Z,101108.38
2022-12-27T09:36:48.999Z,101113.78
2022-12-27T09:39:51.411Z,101117.66
2022-12-27T09:43:19.218Z,101123.00
2022-12-27T09:46:34.384Z,101123.63
2022-12-27T09:49:39.954Z,101122.72
2022-12-27T09:52:53.627Z,101124.47
2022-12-27T09:55:57.980Z,101120.13
2022-12-27T09:59:30.254Z,101116.66
2022-12-27T10:02:34.372Z,101127.06
2022-12-27T10:05:39.412Z,101123.09
2022-12-27T10:09:03.805Z,101123.63
2022-12-27T10:12:37.025Z,101117.28
2022-12-27T10:15:50.255Z,101123.63
2022-12-27T10:19:20.994Z,101108.66
2022-12-27T10:22:33.584Z,101107.56
2022-12-27T10:25:35.953Z,101105.91
2022-12-27T10:28:42.486Z,101104.44
2022-12-27T10:31:44.043Z,101101.06
2022-12-27T10:34:46.977Z,101100.06
2022-12-27T10:37:49.330Z,101089.03
2022-12-27T10:40:57.456Z,101088.25
2022-12-27T10:43:58.974Z,101088.81
2022-12-27T10:47:00.525Z,101083.44
2022-12-27T10:50:13.705Z,101086.56
2022-12-27T10:53:47.817Z,101084.25
2022-12-27T10:56:49.887Z,101098.38
2022-12-27T11:00:22.470Z,101095.06
2022-12-27T11:03:26.136Z,101090.25
2022-12-27T11:06:27.731Z,101092.28
2022-12-27T11:09:35.715Z,101097.94
2022-12-27T11:12:37.741Z,101098.44
2022-12-27T11:15:44.676Z,101093.13
2022-12-27T11:18:50.766Z,101081.13
2022-12-27T11:21:54.873Z,101078.50
2022-12-27T11:24:59.272Z,101082.69
2022-12-27T11:28:02.726Z,101085.44
2022-12-27T11:31:10.719Z,101081.03
2022-12-27T11:34:19.739Z,101080.03
2022-12-27T11:37:25.277Z,101076.94
2022-12-27T11:40:34.554Z,101073.06
2022-12-27T11:43:45.553Z,101072.06
2022-12-27T11:47:10.283Z,101069.97
2022-12-27T11:50:26.848Z,101065.13
2022-12-27T11:53:56.764Z,101056.16
2022-12-27T11:57:14.064Z,101057.66
2022-12-27T12:00:23.699Z,101059.69
2022-12-27T12:03:46.706Z,101061.78
2022-12-27T12:07:00.392Z,101055.09
2022-12-27T12:10:27.821Z,101052.00
2022-12-27T12:14:03.533Z,101046.97
2022-12-27T12:17:23.234Z,101044.75
2022-12-27T12:20:51.288Z,101061.03
2022-12-27T12:24:08.004Z,101050.41
2022-12-27T12:27:09.446Z,101046.28
2022-12-27T12:30:33.342Z,101044.94
2022-12-27T12:34:22.985Z,101043.41
2022-12-27T12:37:32.560Z,101046.84
2022-12-27T12:40:54.577Z,101049.53
2022-12-27T12:44:16.541Z,101050.41
2022-12-27T12:47:26.913Z,101050.06
2022-12-27T12:50:50.642Z,101047.28
2022-12-27T12:54:02.844Z,101053.78
2022-12-27T12:57:32.261Z,101051.84
2022-12-27T13:00:51.857Z,101043.09
2022-12-27T13:04:07.429Z,101043.06
2022-12-27T13:07:36.068Z,101040.47
2022-12-27T13:10:55.585Z,101033.38
2022-12-27T13:14:39.185Z,101034.44
2022-12-27T13:17:58.596Z,101020.78
2022-12-27T13:21:16.785Z,101017.19
2022-12-27T13:24:43.503Z,101025.81
2022-12-27T13:28:02.223Z,101017.03
2022-12-27T13:31:18.445Z,101022.91
2022-12-27T13:34:44.875Z,101018.91
2022-12-27T13:38:12.493Z,101019.13
2022-12-27T13:41:32.140Z,101015.16
2022-12-27T13:44:52.554Z,101007.47
2022-12-27T13:48:08.335Z,101016.81
2022-12-27T13:51:42.298Z,101017.00
2022-12-27T13:55:25.844Z,101019.09
2022-12-27T13:59:03.060Z,101015.47
2022-12-27T14:02:29.446Z,101011.28
2022-12-27T14:06:01.208Z,100997.53
2022-12-27T14:09:23.907Z,101000.25
2022-12-27T14:12:34.308Z,100996.91
2022-12-27T14:16:15.203Z,100994.72
2022-12-27T14:19:22.839Z,100993.06
2022-12-27T14:23:03.696Z,100988.06
2022-12-27T14:26:42.270Z,100982.59
2022-12-27T14:30:17.927Z,100983.53
2022-12-27T14:33:52.970Z,100978.97
2022-12-27T14:37:32.273Z,100990.78
2022-12-27T14:40:44.383Z,100990.31
2022-12-27T14:43:46.065Z,100995.03
2022-12-27T14:47:29.010Z,100990.56
2022-12-27T14:50:48.863Z,100990.69
2022-12-27T14:53:56.321Z,100977.72
2022-12-27T14:57:19.231Z,100972.47
2022-12-27T15:00:25.613Z,100966.75
2022-12-27T15:03:41.566Z,100966.03
2022-12-27T15:07:28.685Z,100971.22
2022-12-27T15:10:47.009Z,100960.56
2022-12-27T15:14:17.525Z,100969.94
2022-12-27T15:17:34.197Z,100966.59
2022-12-27T15:21:13.247Z,100967.44
2022-12-27T15:24:43.763Z,100956.53
2022-12-27T15:28:11.774Z,100960.31
2022-12-27T15:31:29.397Z,100949.75
2022-12-27T15:35:02.707Z,100945.16
2022-12-27T15:38:08.021Z,100937.25
2022-12-27T15:41:29.779Z,100938.34
2022-12-27T15:44:45.163Z,100946.13
2022-12-27T15:48:15.158Z,100934.66
2022-12-27T15:51:28.513Z,100936.38
2022-12-27T15:54:51.826Z,100937.63
2022-12-27T15:58:17.586Z,100932.88
2022-12-27T16:01:26.825Z,100936.81
2022-12-27T16:04:47.944Z,100935.53
2022-12-27T16:08:01.400Z,100941.09
2022-12-27T16:11:05.054Z,100942.00
2022-12-27T16:14:26.660Z,100946.09
2022-12-27T16:17:54.246Z,100956.13
2022-12-27T16:20:59.075Z,100954.00
2022-12-27T16:24:06.172Z,100949.72
2022-12-27T16:27:07.867Z,100947.41
2022-12-27T16:30:10.460Z,100943.50
2022-12-27T16:33:25.462Z,100949.28
2022-12-27T16:36:34.090Z,100949.22
2022-12-27T16:40:01.936Z,100951.28
2022-12-27T16:43:09.714Z,100945.34
2022-12-27T16:46:19.668Z,100953.53
2022-12-27T16:49:40.222Z,100953.88
2022-12-27T16:53:17.796Z,100943.31
2022-12-27T16:56:21.111Z,100937.69
2022-12-27T16:59:59.887Z,100944.41
2022-12-27T17:03:35.460Z,100942.47
2022-12-27T17:06:36.994Z,100931.63
2022-12-27T17:09:44.401Z,100932.63
2022-12-27T17:12:52.684Z,100931.50
2022-12-27T17:16:22.163Z,100925.00
2022-12-27T17:19:55.680Z,100924.91
2022-12-27T17:22:58.392Z,100928.03
2022-12-27T17:26:12.877Z,100923.88
2022-12-27T17:29:29.832Z,100929.44
2022-12-27T17:32:57.893Z,100930.97
2022-12-27T17:36:32.387Z,100923.41
2022-12-27T17:39:54.501Z,100910.75
2022-12-27T17:43:38.992Z,100925.81
2022-12-27T17:47:02.304Z,100911.97
2022-12-27T17:50:11.742Z,100913.81
2022-12-27T17:53:38.440Z,100906.19
2022-12-27T17:57:18.651Z,100897.78
2022-12-27T18:00:31.435Z,100881.41
2022-12-27T18:03:39.360Z,100875.91
2022-12-27T18:06:41.190Z,100870.38
2022-12-27T18:09:49.935Z,100866.69
2022-12-27T18:13:04.884Z,100871.50
2022-12-27T18:16:21.450Z,100873.47
2022-12-27T18:19:30.679Z,100866.59
2022-12-27T18:22:32.386Z,100866.59
2022-12-27T18:25:44.266Z,100868.06
2022-12-27T18:28:47.714Z,100861.31
2022-12-27T18:31:55.940Z,100862.31
2022-12-27T18:35:02.422Z,100853.16
2022-12-27T18:38:08.146Z,100855.19
2022-12-27T18:41:22.900Z,100850.38
2022-12-27T18:44:32.204Z,100842.22
2022-12-27T18:47:39.796Z,100847.59
2022-12-27T18:50:51.257Z,100846.94
2022-12-27T18:53:53.004Z,100846.69
2022-12-27T18:56:56.135Z,100847.00
2022-12-27T19:00:17.408Z,100841.66
2022-12-27T19:03:20.510Z,100835.53
2022-12-27T19:06:22.098Z,100832.53
2022-12-27T19:09:28.087Z,100830.44
2022-12-27T19:12:39.330Z,100837.25
2022-12-27T19:15:43.794Z,100842.75
2022-12-27T19:18:51.352Z,100835.06
2022-12-27T19:21:53.241Z,100836.16
2022-12-27T19:25:04.523Z,100827.34
2022-12-27T19:28:12.015Z,100824.91
2022-12-27T19:31:18.379Z,100827.81
2022-12-27T19:34:21.123Z,100822.44
2022-12-27T19:37:26.901Z,100812.69
2022-12-27T19:40:28.406Z,100812.53
2022-12-27T19:43:45.411Z,100811.22
2022-12-27T19:46:48.838Z,100806.22
2022-12-27T19:49:50.568Z,100802.00
2022-12-27T19:52:52.327Z,100798.69
2022-12-27T19:55:53.859Z,100796.94
2022-12-27T19:58:55.667Z,100795.34
2022-12-27T20:01:57.361Z,100790.59
2022-12-27T20:04:58.939Z,100791.63
2022-12-27T20:08:00.416Z,100785.13
2022-12-27T20:11:04.638Z,100792.09
2022-12-27T20:14:06.223Z,100796.56
2022-12-27T20:17:07.675Z,100787.28
2022-12-27T20:20:10.603Z,100793.19
2022-12-27T20:23:12.448Z,100779.19
2022-12-27T20:26:18.171Z,100788.13
2022-12-27T20:29:20.767Z,100783.94
2022-12-27T20:32:22.397Z,100791.88
2022-12-27T20:35:24.006Z,100785.22
2022-12-27T20:38:26.072Z,100790.25
2022-12-27T20:41:28.730Z,100795.31
2022-12-27T20:44:30.759Z,100784.66
2022-12-27T20:47:32.282Z,100770.50
2022-12-27T20:50:33.743Z,100768.06
2022-12-27T20:53:36.622Z,100760.34
2022-12-27T20:56:38.125Z,100772.34
2022-12-27T20:59:39.848Z,100770.00
2022-12-27T21:02:42.161Z,100768.91
2022-12-27T21:05:44.474Z,100767.34
2022-12-27T21:08:54.141Z,100768.16
2022-12-27T21:11:58.088Z,100773.81
2022-12-27T21:14:59.587Z,100764.66
2022-12-27T21:18:01.088Z,100766.78
2022-12-27T21:21:04.971Z,100763.88
2022-12-27T21:24:08.173Z,100759.41
2022-12-27T21:27:09.739Z,100754.22
2022-12-27T21:30:13.345Z,100757.16
2022-12-27T21:33:14.860Z,100751.66
2022-12-27T21:36:28.506Z,100750.81
2022-12-27T21:39:33.293Z,100748.09
2022-12-27T21:42:34.855Z,100747.34
2022-12-27T21:45:36.346Z,100751.81
2022-12-27T21:48:38.116Z,100739.34
2022-12-27T21:51:41.528Z,100729.75
2022-12-27T21:55:07.264Z,100722.88
2022-12-27T21:58:09.123Z,100723.47
2022-12-27T22:01:13.499Z,100726.28
2022-12-27T22:04:15.159Z,100715.28
2022-12-27T22:07:16.695Z,100709.13
2022-12-27T22:10:18.258Z,100700.00
2022-12-27T22:13:19.725Z,100699.38
2022-12-27T22:16:24.011Z,100693.94
2022-12-27T22:19:25.572Z,100683.97
2022-12-27T22:22:27.108Z,100695.16
2022-12-27T22:25:28.542Z,100693.31
2022-12-27T22:28:30.203Z,100691.13
2022-12-27T22:31:35.291Z,100702.94
2022-12-27T22:34:36.911Z,100709.22
2022-12-27T22:37:38.390Z,100694.16
2022-12-27T22:40:46.023Z,100696.66
2022-12-27T22:44:09.687Z,100697.94
2022-12-27T22:47:28.020Z,100701.09
2022-12-27T22:50:30.127Z,100700.06
2022-12-27T22:53:31.648Z,100698.84
2022-12-27T22:56:36.595Z,100699.66
2022-12-27T22:59:38.113Z,100690.88
2022-12-27T23:02:39.800Z,100691.06
2022-12-27T23:05:41.490Z,100683.56
2022-12-27T23:08:43.959Z,100688.69
2022-12-27T23:11:45.726Z,100693.28
2022-12-27T23:14:47.723Z,100685.28
2022-12-27T23:17:49.275Z,100689.38
2022-12-27T23:21:21.092Z,100695.03
2022-12-27T23:24:13.064Z,100688.81
2022-12-27T23:27:14.558Z,100686.34
2022-12-27T23:30:16.298Z,100680.28
2022-12-27T23:33:17.784Z,100672.44
2022-12-27T23:36:20.139Z,100670.22
2022-12-27T23:39:21.630Z,100662.53
2022-12-27T23:42:23.070Z,100656.25
2022-12-27T23:45:25.575Z,100665.13
2022-12-27T23:48:27.372Z,100658.44
2022-12-27T23:51:30.151Z,100662.44
2022-12-27T23:54:31.770Z,100648.56
2022-12-27T23:57:33.235Z,100655.66
